Time;durP1;ratioP1;P1;durP2;ratioP2;P2;SDS_P1;SDS_P2;PMS_P1;PMS_P2;Temp;Humidity;BMP_temperature;BMP_pressure;BME280_temperature;BME280_humidity;BME280_pressure;Samples;Min_cycle;Max_cycle;Signal;HPM_P1;HPM_P2
2022/04/13 00:00:27;;;;;;;4.82;4.30;;;10.80;99.90;;;;;;5055795;28;20201;-94
2022/04/13 00:02:54;;;;;;;6.35;4.35;;;10.80;99.90;;;;;;5055433;28;20280;-94
2022/04/13 00:05:21;;;;;;;5.80;3.50;;;10.80;99.90;;;;;;5035665;28;20271;-94
2022/04/13 00:07:49;;;;;;;3.03;2.72;;;10.70;99.90;;;;;;5036869;28;20206;-92
2022/04/13 00:10:16;;;;;;;3.55;3.05;;;10.70;99.90;;;;;;5036076;28;20206;-94
2022/04/13 00:12:43;;;;;;;3.95;3.50;;;10.60;99.90;;;;;;5036451;28;20208;-93
2022/04/13 00:15:10;;;;;;;6.28;4.13;;;10.60;99.90;;;;;;5035420;28;20217;-93
2022/04/13 00:17:37;;;;;;;5.28;4.25;;;10.60;99.90;;;;;;5045323;28;20197;-94
2022/04/13 00:20:05;;;;;;;3.90;3.50;;;10.60;99.90;;;;;;5049398;28;20217;-93
2022/04/13 00:22:32;;;;;;;5.03;3.35;;;10.60;99.90;;;;;;5048974;28;20210;-95
2022/04/13 00:25:01;;;;;;;6.45;3.60;;;10.50;99.90;;;;;;5051669;28;20240;-94
2022/04/13 00:27:35;;;;;;;4.55;2.92;;;10.60;99.90;;;;;;5052247;28;20210;-94
2022/04/13 00:30:03;;;;;;;3.55;3.20;;;10.50;99.90;;;;;;5055516;28;20204;-94
2022/04/13 00:32:32;;;;;;;4.43;2.80;;;10.50;99.90;;;;;;5058120;28;20201;-94
2022/04/13 00:35:02;;;;;;;4.70;3.58;;;10.50;99.90;;;;;;5059055;28;20205;-94
2022/04/13 00:37:29;;;;;;;4.40;3.25;;;10.40;99.90;;;;;;5058723;28;20269;-93
2022/04/13 00:39:56;;;;;;;3.33;3.00;;;10.40;99.90;;;;;;5058529;28;20225;-94
2022/04/13 00:42:25;;;;;;;3.65;3.22;;;10.40;99.90;;;;;;5058287;28;20274;-94
2022/04/13 00:44:52;;;;;;;4.40;4.00;;;10.40;99.90;;;;;;5058649;28;20260;-95
2022/04/13 00:47:19;;;;;;;3.45;3.15;;;10.40;99.90;;;;;;5058926;28;20202;-93
2022/04/13 00:49:46;;;;;;;3.22;2.78;;;10.40;99.90;;;;;;5057498;28;20198;-94
2022/04/13 00:52:16;;;;;;;4.65;3.45;;;10.30;99.90;;;;;;5059533;28;20217;-94
2022/04/13 00:54:44;;;;;;;3.13;2.85;;;10.30;99.90;;;;;;5058690;28;20281;-93
2022/04/13 00:57:11;;;;;;;4.15;3.35;;;10.30;99.90;;;;;;5059095;28;20225;-94
2022/04/13 00:59:40;;;;;;;4.07;3.15;;;10.20;99.90;;;;;;5058731;28;20228;-94
2022/04/13 01:02:08;;;;;;;3.25;2.90;;;10.20;99.90;;;;;;5057693;28;20204;-95
2022/04/13 01:04:36;;;;;;;3.90;3.35;;;10.20;99.90;;;;;;5057280;28;20225;-94
2022/04/13 01:07:07;;;;;;;3.22;2.95;;;10.10;99.90;;;;;;5057574;28;20186;-94
2022/04/13 01:09:35;;;;;;;3.30;2.92;;;10.00;99.90;;;;;;5057064;28;20212;-94
2022/04/13 01:12:08;;;;;;;3.83;3.42;;;10.00;99.90;;;;;;5058163;28;20253;-95
2022/04/13 01:14:35;;;;;;;3.75;3.42;;;10.00;99.90;;;;;;5057850;28;20321;-92
2022/04/13 01:17:04;;;;;;;3.65;3.35;;;10.00;99.90;;;;;;5057456;28;20266;-93
2022/04/13 01:19:32;;;;;;;3.65;2.70;;;10.00;99.90;;;;;;5058049;28;20190;-94
2022/04/13 01:22:03;;;;;;;5.90;2.78;;;9.90;99.90;;;;;;5058427;28;20213;-94
2022/04/13 01:24:32;;;;;;;3.30;3.00;;;9.90;99.90;;;;;;5058420;28;20220;-94
2022/04/13 01:26:59;;;;;;;3.63;2.92;;;9.90;99.90;;;;;;5058151;28;20197;-95
2022/04/13 01:29:26;;;;;;;3.90;3.20;;;9.80;99.90;;;;;;5058539;28;20245;-94
2022/04/13 01:31:55;;;;;;;3.70;2.60;;;9.80;99.90;;;;;;5058968;28;20269;-94
2022/04/13 01:34:21;;;;;;;6.05;3.70;;;9.70;99.90;;;;;;5058041;28;20222;-93
2022/04/13 01:36:48;;;;;;;4.35;3.20;;;9.70;99.90;;;;;;5058517;28;20198;-94
2022/04/13 01:39:15;;;;;;;9.48;3.10;;;9.70;99.90;;;;;;5058553;28;20178;-93
2022/04/13 01:41:43;;;;;;;4.63;3.38;;;9.70;99.90;;;;;;5058744;28;20197;-95
2022/04/13 01:44:10;;;;;;;2.50;2.30;;;9.60;99.90;;;;;;5058587;28;20205;-94
2022/04/13 01:46:37;;;;;;;4.68;3.05;;;9.60;99.90;;;;;;5058782;28;20206;-94
2022/04/13 01:49:07;;;;;;;3.00;2.70;;;9.50;99.90;;;;;;5057920;28;20264;-93
2022/04/13 01:51:34;;;;;;;4.68;2.80;;;9.50;99.90;;;;;;5057803;28;20426;-93
2022/04/13 01:54:01;;;;;;;3.78;2.53;;;9.50;99.90;;;;;;5057793;28;20226;-94
2022/04/13 01:56:28;;;;;;;2.95;2.60;;;9.40;99.90;;;;;;5057668;28;20186;-94
2022/04/13 01:58:56;;;;;;;5.00;3.13;;;9.40;99.90;;;;;;5057883;28;20212;-93
2022/04/13 02:01:23;;;;;;;2.53;2.33;;;9.40;99.90;;;;;;5058131;28;20232;-94
2022/04/13 02:03:50;;;;;;;3.88;2.80;;;9.40;99.90;;;;;;5057843;28;20221;-94
2022/04/13 02:06:16;;;;;;;3.58;2.88;;;9.30;99.90;;;;;;5058005;28;20272;-95
2022/04/13 02:08:43;;;;;;;2.83;2.63;;;9.30;99.90;;;;;;5057427;28;20452;-95
2022/04/13 02:11:10;;;;;;;3.05;2.75;;;9.30;99.90;;;;;;5058223;28;20202;-94
2022/04/13 02:13:39;;;;;;;2.70;2.50;;;9.30;99.90;;;;;;5058017;28;20232;-94
2022/04/13 02:16:08;;;;;;;3.55;2.50;;;9.20;99.90;;;;;;5058289;28;20188;-93
2022/04/13 02:18:35;;;;;;;6.55;2.50;;;9.20;99.90;;;;;;5057488;28;20278;-92
2022/04/13 02:21:02;;;;;;;2.70;2.50;;;9.20;99.90;;;;;;5058001;28;20201;-93
2022/04/13 02:23:29;;;;;;;3.20;2.90;;;9.20;99.90;;;;;;5058237;28;20278;-93
2022/04/13 02:25:56;;;;;;;3.78;3.47;;;9.20;99.90;;;;;;5058144;28;20213;-95
2022/04/13 02:28:22;;;;;;;2.90;2.60;;;9.20;99.90;;;;;;5058250;28;20186;-93
2022/04/13 02:30:49;;;;;;;3.05;2.47;;;9.10;99.90;;;;;;5058320;28;20190;-95
2022/04/13 02:33:17;;;;;;;3.17;2.55;;;9.10;99.90;;;;;;5058149;28;20217;-93
2022/04/13 02:35:44;;;;;;;3.08;2.72;;;9.00;99.90;;;;;;5057788;28;20194;-92
2022/04/13 02:38:11;;;;;;;4.50;2.63;;;9.00;99.90;;;;;;5057306;28;20221;-93
2022/04/13 02:40:38;;;;;;;3.13;2.83;;;9.00;99.90;;;;;;5057129;28;20261;-94
2022/04/13 02:43:05;;;;;;;2.85;2.53;;;8.90;99.90;;;;;;5057649;28;20254;-93
2022/04/13 02:45:31;;;;;;;2.90;2.60;;;8.90;99.90;;;;;;5056690;28;20265;-93
2022/04/13 02:47:58;;;;;;;4.93;2.92;;;8.80;99.90;;;;;;5057530;28;20252;-92
2022/04/13 02:50:27;;;;;;;5.20;2.58;;;8.80;99.90;;;;;;5057635;28;20181;-93
2022/04/13 02:52:56;;;;;;;6.15;2.78;;;8.80;99.90;;;;;;5057809;28;20219;-93
2022/04/13 02:55:23;;;;;;;4.93;3.05;;;8.80;99.90;;;;;;5057724;28;20225;-93
2022/04/13 02:57:50;;;;;;;6.75;3.10;;;8.80;99.90;;;;;;5057830;28;20245;-94
2022/04/13 03:00:17;;;;;;;3.00;2.70;;;8.80;99.90;;;;;;5057676;28;20182;-94
2022/04/13 03:02:45;;;;;;;5.05;3.30;;;8.70;99.90;;;;;;5057575;28;20214;-92
2022/04/13 03:05:12;;;;;;;4.05;3.30;;;8.70;99.90;;;;;;5057910;28;20233;-94
2022/04/13 03:07:40;;;;;;;4.57;3.63;;;8.70;99.90;;;;;;5056939;28;20198;-93
2022/04/13 03:10:08;;;;;;;4.10;3.05;;;8.70;99.90;;;;;;5057004;28;20206;-92
2022/04/13 03:12:34;;;;;;;4.78;2.70;;;8.70;99.90;;;;;;5057491;28;20193;-93
2022/04/13 03:15:02;;;;;;;3.05;2.75;;;8.70;99.90;;;;;;5057474;28;20237;-93
2022/04/13 03:17:29;;;;;;;2.70;2.50;;;8.70;99.90;;;;;;5057435;28;20198;-94
2022/04/13 03:19:56;;;;;;;3.88;3.00;;;8.60;99.90;;;;;;5056656;28;20192;-93
2022/04/13 03:22:23;;;;;;;3.03;2.70;;;8.50;99.90;;;;;;5057485;28;20257;-92
2022/04/13 03:24:52;;;;;;;3.50;3.20;;;8.40;99.90;;;;;;5057053;28;20205;-94
2022/04/13 03:27:19;;;;;;;2.83;2.60;;;8.40;99.90;;;;;;5056845;28;20182;-93
2022/04/13 03:29:46;;;;;;;4.80;2.80;;;8.40;99.90;;;;;;5052005;28;20190;-94
2022/04/13 03:32:13;;;;;;;3.90;3.00;;;8.40;99.90;;;;;;5055242;28;20200;-94
2022/04/13 03:34:40;;;;;;;5.00;2.63;;;8.30;99.90;;;;;;5055383;28;20205;-94
2022/04/13 03:37:07;;;;;;;4.25;3.30;;;8.30;99.90;;;;;;5051204;28;20202;-93
2022/04/13 03:39:33;;;;;;;3.40;3.10;;;8.30;99.90;;;;;;5031985;28;20201;-93
2022/04/13 03:42:02;;;;;;;4.28;3.10;;;8.30;99.90;;;;;;5038678;28;20204;-93
2022/04/13 03:44:29;;;;;;;2.97;2.75;;;8.30;99.90;;;;;;5039605;28;20603;-94
2022/04/13 03:47:11;;;;;;;3.92;3.08;;;8.20;99.90;;;;;;5035849;28;20600;-94
2022/04/13 03:49:59;;;;;;;3.78;2.78;;;8.20;99.90;;;;;;5027822;28;20258;-93
2022/04/13 03:52:26;;;;;;;5.47;2.90;;;8.20;99.90;;;;;;5046628;28;20194;-90
2022/04/13 03:54:53;;;;;;;6.10;3.60;;;8.10;99.90;;;;;;5043122;28;20208;-91
2022/04/13 03:59:51;;;;;;;3.55;3.13;;;8.10;99.90;;;;;;5045598;28;20612;-67
2022/04/13 04:02:18;;;;;;;7.95;3.83;;;8.10;99.90;;;;;;5042480;28;20283;-67
2022/04/13 04:04:44;;;;;;;6.97;3.63;;;8.10;99.90;;;;;;5043980;28;20201;-68
2022/04/13 04:07:11;;;;;;;5.10;3.17;;;8.10;99.90;;;;;;5035537;28;20214;-68
2022/04/13 04:09:38;;;;;;;3.50;3.20;;;8.00;99.90;;;;;;5032461;28;20672;-68
2022/04/13 04:12:05;;;;;;;3.95;3.58;;;8.00;99.90;;;;;;5033817;28;20201;-68
2022/04/13 04:14:32;;;;;;;4.35;3.22;;;8.00;99.90;;;;;;5033489;28;20197;-68
2022/04/13 04:17:00;;;;;;;3.63;3.10;;;7.90;99.90;;;;;;5033961;28;20739;-67
2022/04/13 04:19:27;;;;;;;6.40;3.60;;;7.90;99.90;;;;;;5029256;28;20920;-68
2022/04/13 04:21:54;;;;;;;4.30;3.72;;;7.90;99.90;;;;;;5033846;28;20194;-68
2022/04/13 04:24:21;;;;;;;4.80;3.63;;;8.00;99.90;;;;;;5033663;28;20190;-68
2022/04/13 04:26:48;;;;;;;4.72;3.58;;;8.00;99.90;;;;;;5033541;28;20228;-69
2022/04/13 04:29:14;;;;;;;3.72;3.22;;;8.00;99.90;;;;;;5032983;28;20197;-68
2022/04/13 04:31:54;;;;;;;6.13;3.50;;;7.90;99.90;;;;;;5033014;28;20194;-70
2022/04/13 04:34:24;;;;;;;4.50;3.22;;;7.90;99.90;;;;;;5034032;28;20205;-70
2022/04/13 04:36:51;;;;;;;4.18;3.78;;;7.90;99.90;;;;;;5033440;28;20222;-69
2022/04/13 04:39:18;;;;;;;4.60;4.20;;;7.90;99.90;;;;;;5033235;28;20886;-71
2022/04/13 04:41:45;;;;;;;4.00;3.55;;;7.90;99.90;;;;;;5033286;28;20620;-72
2022/04/13 04:44:12;;;;;;;6.13;3.70;;;7.90;99.90;;;;;;5033673;28;20210;-69
2022/04/13 04:46:39;;;;;;;6.45;4.45;;;7.80;99.90;;;;;;5033033;28;20237;-70
2022/04/13 04:49:06;;;;;;;5.55;4.20;;;7.80;99.90;;;;;;5033032;28;20313;-68
2022/04/13 04:51:35;;;;;;;5.32;4.75;;;7.80;99.90;;;;;;5033394;28;20209;-70
2022/04/13 04:54:02;;;;;;;5.57;4.35;;;7.80;99.90;;;;;;5033340;28;20576;-70
2022/04/13 04:56:30;;;;;;;6.50;4.35;;;7.80;99.90;;;;;;5033347;28;20217;-70
2022/04/13 04:58:57;;;;;;;6.47;4.82;;;7.80;99.90;;;;;;5032864;28;20216;-70
2022/04/13 05:01:24;;;;;;;7.25;5.32;;;7.80;99.90;;;;;;5032965;28;20209;-69
2022/04/13 05:03:51;;;;;;;9.15;5.10;;;7.80;99.90;;;;;;5033234;28;20554;-69
2022/04/13 05:06:22;;;;;;;7.13;4.50;;;7.80;99.90;;;;;;5033023;28;20384;-72
2022/04/13 05:08:52;;;;;;;5.47;4.80;;;7.90;99.90;;;;;;5031457;28;20202;-70
2022/04/13 05:11:19;;;;;;;5.95;5.07;;;7.90;99.90;;;;;;5032851;28;20225;-69
2022/04/13 05:13:46;;;;;;;6.60;5.70;;;7.90;99.90;;;;;;5032836;28;20202;-68
2022/04/13 05:16:14;;;;;;;7.25;5.18;;;8.00;99.90;;;;;;5032568;28;20269;-69
2022/04/13 05:18:41;;;;;;;4.80;4.00;;;8.00;99.90;;;;;;5032062;28;20224;-70
2022/04/13 05:21:08;;;;;;;5.80;4.72;;;8.10;99.90;;;;;;5032637;28;20205;-72
2022/04/13 05:23:35;;;;;;;5.63;4.60;;;8.10;99.90;;;;;;5032695;28;20205;-70
2022/04/13 05:26:04;;;;;;;5.20;4.70;;;8.20;99.90;;;;;;5031655;28;20256;-70
2022/04/13 05:28:30;;;;;;;5.43;4.90;;;8.30;99.90;;;;;;5030060;28;20198;-70
2022/04/13 05:30:57;;;;;;;5.22;4.32;;;8.40;99.90;;;;;;5030996;28;20201;-69
2022/04/13 05:33:24;;;;;;;6.45;4.55;;;8.50;99.90;;;;;;5030893;28;20198;-69
2022/04/13 05:35:51;;;;;;;4.50;4.10;;;8.60;99.90;;;;;;5031990;28;20202;-68
2022/04/13 05:38:18;;;;;;;6.55;3.85;;;8.70;99.90;;;;;;5032123;28;20198;-68
2022/04/13 05:40:44;;;;;;;4.15;3.75;;;8.80;99.90;;;;;;5032050;28;20618;-68
2022/04/13 05:43:13;;;;;;;4.95;4.10;;;8.90;99.90;;;;;;5032270;28;20205;-68
2022/04/13 05:45:39;;;;;;;4.65;4.00;;;9.00;99.90;;;;;;5031991;28;20309;-68
2022/04/13 05:48:06;;;;;;;5.28;4.18;;;9.10;99.90;;;;;;5031795;28;20217;-69
2022/04/13 05:50:33;;;;;;;6.07;4.10;;;9.20;99.90;;;;;;5032139;28;20259;-68
2022/04/13 05:53:00;;;;;;;7.72;4.25;;;9.30;99.90;;;;;;5032317;28;20205;-69
2022/04/13 06:02:47;;;;;;;5.50;4.35;;;9.70;99.90;;;;;;5087417;28;20227;-92
2022/04/13 06:05:38;;;;;;;5.25;4.20;;;9.90;99.90;;;;;;5067513;28;20221;-92
2022/04/13 06:08:38;;;;;;;4.82;4.43;;;10.10;99.90;;;;;;5065573;28;20215;-92
2022/04/13 06:11:48;;;;;;;5.38;4.32;;;10.20;99.90;;;;;;5064569;28;20212;-91
2022/04/13 06:17:07;;;;;;;4.97;4.40;;;10.50;99.90;;;;;;5066816;28;20230;-94
2022/04/13 06:20:22;;;;;;;7.80;4.30;;;10.70;99.90;;;;;;5074809;28;20646;-92
2022/04/13 06:32:27;;;;;;;4.75;4.35;;;11.50;99.90;;;;;;5072276;28;20205;-92
2022/04/13 06:35:18;;;;;;;;;;;;;;;;;;;;;
2022/04/13 06:41:31;;;;;;;5.67;4.20;;;12.00;99.90;;;;;;5063257;28;20212;-92
2022/04/13 06:44:29;;;;;;;8.07;4.70;;;12.30;99.90;;;;;;5076889;28;20554;-93
2022/04/13 06:50:18;;;;;;;4.90;4.23;;;12.70;99.90;;;;;;5052766;22;20505;-70
2022/04/13 06:52:45;;;;;;;7.03;4.27;;;12.90;99.90;;;;;;5051315;28;20884;-70
2022/04/13 06:55:12;;;;;;;9.77;5.10;;;13.10;99.90;;;;;;5051274;28;20469;-75
2022/04/13 06:57:40;;;;;;;5.30;4.80;;;13.30;99.90;;;;;;5033899;28;20546;-72
2022/04/13 07:00:08;;;;;;;5.50;4.70;;;13.50;99.90;;;;;;5024891;28;20465;-71
2022/04/13 07:02:35;;;;;;;6.20;4.50;;;13.70;99.90;;;;;;5029766;28;20457;-69
2022/04/13 07:05:02;;;;;;;5.20;4.50;;;13.90;99.90;;;;;;5029733;28;21305;-70
2022/04/13 07:07:31;;;;;;;6.30;5.37;;;14.00;99.90;;;;;;5029115;28;20496;-73
2022/04/13 07:09:58;;;;;;;5.07;4.57;;;14.20;99.90;;;;;;5029252;28;20459;-71
2022/04/13 07:12:25;;;;;;;8.40;4.23;;;14.40;99.90;;;;;;5029510;28;20460;-70
2022/04/13 07:14:54;;;;;;;5.03;4.40;;;14.50;99.90;;;;;;5028816;28;20882;-71
2022/04/13 07:17:20;;;;;;;5.70;5.10;;;14.80;99.90;;;;;;5030159;28;20501;-71
2022/04/13 07:19:47;;;;;;;5.63;4.20;;;15.00;99.90;;;;;;5029193;28;20493;-72
2022/04/13 07:22:14;;;;;;;8.57;5.00;;;15.20;99.90;;;;;;5028816;28;20475;-70
2022/04/13 07:24:42;;;;;;;5.10;4.60;;;15.40;99.90;;;;;;5029835;28;20467;-70
2022/04/13 07:27:09;;;;;;;6.03;5.43;;;15.60;99.90;;;;;;5030385;28;20499;-69
2022/04/13 07:29:35;;;;;;;7.40;5.07;;;15.80;99.90;;;;;;5029801;28;20956;-70
2022/04/13 07:32:02;;;;;;;6.10;5.30;;;16.10;99.90;;;;;;5030102;28;20468;-72
2022/04/13 07:34:29;;;;;;;5.47;4.87;;;16.20;99.90;;;;;;5030493;28;20518;-71
2022/04/13 07:36:55;;;;;;;10.33;5.43;;;16.40;99.90;;;;;;5030397;28;20481;-71
2022/04/13 07:39:22;;;;;;;5.93;5.30;;;16.60;99.90;;;;;;5019263;28;21048;-72
2022/04/13 07:41:50;;;;;;;7.97;5.13;;;16.80;99.90;;;;;;5022528;28;20492;-72
2022/04/13 07:44:18;;;;;;;6.83;4.77;;;17.00;99.90;;;;;;5016912;28;20461;-74
2022/04/13 07:46:44;;;;;;;7.57;5.03;;;17.20;99.90;;;;;;5019964;28;20480;-72
2022/04/13 07:49:11;;;;;;;12.90;5.30;;;17.30;99.90;;;;;;5023785;28;20465;-71
2022/04/13 07:51:40;;;;;;;7.67;5.23;;;17.40;99.90;;;;;;5011470;28;20461;-69
2022/04/13 07:54:08;;;;;;;7.00;4.60;;;17.60;99.90;;;;;;5010748;28;20457;-69
2022/04/13 07:56:35;;;;;;;6.60;4.40;;;17.90;99.90;;;;;;5011046;28;20488;-71
2022/04/13 07:59:03;;;;;;;7.50;5.23;;;18.10;99.90;;;;;;5010104;28;20465;-71
2022/04/13 08:01:30;;;;;;;10.93;5.90;;;18.50;99.90;;;;;;5010822;28;20465;-70
2022/04/13 08:03:57;;;;;;;10.90;4.90;;;18.70;99.90;;;;;;5010443;28;20468;-72
2022/04/13 08:06:23;;;;;;;7.30;5.50;;;18.90;99.90;;;;;;5011011;28;20508;-69
2022/04/13 08:08:50;;;;;;;8.47;4.73;;;19.30;99.90;;;;;;5010144;28;20519;-70
2022/04/13 08:11:17;;;;;;;8.57;5.00;;;19.50;99.90;;;;;;5010244;28;20476;-69
2022/04/13 08:13:43;;;;;;;8.40;4.80;;;19.90;99.30;;;;;;5010392;28;20472;-69
2022/04/13 08:16:11;;;;;;;9.50;4.27;;;20.20;98.50;;;;;;5009901;28;20539;-69
2022/04/13 08:18:38;;;;;;;6.73;3.63;;;20.60;97.10;;;;;;5010198;28;20464;-69
2022/04/13 08:21:05;;;;;;;5.27;3.47;;;21.00;95.80;;;;;;5010243;28;20465;-68
2022/04/13 08:23:31;;;;;;;5.93;3.57;;;21.50;93.90;;;;;;5010423;28;20472;-69
2022/04/13 08:25:58;;;;;;;6.80;3.77;;;21.80;93.60;;;;;;5010072;28;20485;-69
2022/04/13 08:28:25;;;;;;;4.30;3.03;;;22.20;92.90;;;;;;5009836;28;20512;-68
2022/04/13 08:30:51;;;;;;;6.20;3.17;;;22.50;92.60;;;;;;5010530;28;20461;-69
2022/04/13 08:33:19;;;;;;;5.00;3.77;;;22.70;91.90;;;;;;5011115;28;20995;-68
2022/04/13 08:35:46;;;;;;;9.40;3.70;;;22.50;90.50;;;;;;5010289;28;20468;-71
2022/04/13 08:38:13;;;;;;;3.53;3.20;;;22.30;90.30;;;;;;5009459;28;20515;-71
2022/04/13 08:40:48;;;;;;;5.93;3.50;;;22.30;90.90;;;;;;5010276;28;20464;-69
2022/04/13 08:43:21;;;;;;;5.43;3.20;;;22.50;90.20;;;;;;5011194;28;20928;-70
2022/04/13 08:45:53;;;;;;;4.23;3.00;;;22.70;89.90;;;;;;5013787;28;20461;-70
2022/04/13 08:48:24;;;;;;;4.57;2.90;;;23.00;89.70;;;;;;5013408;28;20512;-69
2022/04/13 08:50:53;;;;;;;3.70;2.43;;;23.50;90.20;;;;;;5013696;28;20560;-70
2022/04/13 08:53:22;;;;;;;5.10;2.90;;;24.00;88.70;;;;;;5013568;28;20484;-71
2022/04/13 08:55:54;;;;;;;5.97;2.83;;;24.40;87.20;;;;;;5013347;28;20472;-68
2022/04/13 08:58:28;;;;;;;3.53;2.27;;;24.90;85.30;;;;;;5012968;28;20461;-69
2022/04/13 09:01:00;;;;;;;7.50;2.63;;;24.90;79.70;;;;;;5013161;28;20475;-72
2022/04/13 09:03:36;;;;;;;7.27;2.40;;;25.20;79.80;;;;;;5013428;28;20466;-70
2022/04/13 09:06:05;;;;;;;8.30;2.23;;;25.50;79.10;;;;;;5013189;28;20909;-70
2022/04/13 09:08:38;;;;;;;3.93;2.10;;;25.90;76.80;;;;;;5012689;28;20485;-71
2022/04/13 09:11:07;;;;;;;7.53;2.80;;;26.40;75.00;;;;;;5012956;28;20465;-71
2022/04/13 09:13:33;;;;;;;5.90;2.57;;;26.50;75.30;;;;;;5013102;28;20461;-71
2022/04/13 09:16:02;;;;;;;4.47;2.37;;;26.80;74.10;;;;;;5012931;28;20518;-70
2022/04/13 09:18:30;;;;;;;4.43;2.10;;;27.00;72.50;;;;;;5012475;28;20457;-69
2022/04/13 09:20:58;;;;;;;9.00;3.10;;;27.00;73.90;;;;;;5013016;28;20461;-69
2022/04/13 09:23:28;;;;;;;5.53;2.60;;;27.10;71.80;;;;;;5012830;28;20489;-69
2022/04/13 09:25:56;;;;;;;14.70;2.90;;;27.30;73.00;;;;;;5012690;28;20481;-71
2022/04/13 09:28:23;;;;;;;8.73;2.67;;;27.50;72.20;;;;;;5012289;28;20481;-72
2022/04/13 09:30:50;;;;;;;3.80;2.03;;;27.30;72.20;;;;;;5013052;28;20811;-70
2022/04/13 09:33:16;;;;;;;4.53;3.17;;;27.30;72.80;;;;;;5012813;28;20465;-70
2022/04/13 09:35:45;;;;;;;3.63;2.93;;;27.50;70.00;;;;;;5012620;28;20473;-73
2022/04/13 09:38:11;;;;;;;3.03;2.70;;;27.40;70.80;;;;;;5013022;28;21198;-70
2022/04/13 09:40:40;;;;;;;3.47;2.37;;;27.40;70.10;;;;;;5012338;28;20462;-70
2022/04/13 09:43:09;;;;;;;3.97;2.57;;;27.80;72.10;;;;;;5013704;28;20457;-72
2022/04/13 09:45:39;;;;;;;3.73;2.60;;;28.00;70.90;;;;;;5013860;28;20495;-74
2022/04/13 09:48:07;;;;;;;2.93;2.23;;;28.20;69.90;;;;;;5016706;28;20541;-72
2022/04/13 09:50:34;;;;;;;3.50;2.60;;;28.60;70.80;;;;;;5012510;28;20475;-71
2022/04/13 09:53:05;;;;;;;4.10;2.70;;;28.70;67.90;;;;;;5012292;28;20477;-73
2022/04/13 09:55:35;;;;;;;6.73;2.67;;;28.80;68.20;;;;;;5011740;28;20462;-75
2022/04/13 09:58:06;;;;;;;2.90;2.60;;;28.90;70.80;;;;;;5011299;28;20463;-70
2022/04/13 10:00:34;;;;;;;5.47;2.87;;;29.10;68.00;;;;;;5012276;28;20459;-70
2022/04/13 10:03:09;;;;;;;5.37;2.43;;;29.30;67.30;;;;;;5012318;28;20463;-70
2022/04/13 10:05:36;;;;;;;4.63;3.10;;;29.40;67.60;;;;;;5012800;28;20488;-69
2022/04/13 10:08:06;;;;;;;9.43;3.20;;;29.20;66.40;;;;;;5011123;28;20856;-69
2022/04/13 10:10:33;;;;;;;5.13;2.50;;;29.00;69.30;;;;;;5012150;28;20468;-69
2022/04/13 10:12:59;;;;;;;4.33;3.03;;;29.40;68.90;;;;;;5012110;28;20822;-69
2022/04/13 10:15:26;;;;;;;6.30;2.90;;;29.50;66.40;;;;;;5011758;28;20464;-68
2022/04/13 10:17:58;;;;;;;4.13;3.30;;;29.70;65.90;;;;;;5011890;28;20484;-69
2022/04/13 10:20:29;;;;;;;4.30;3.10;;;29.80;66.20;;;;;;5011863;28;20462;-69
2022/04/13 10:22:59;;;;;;;5.43;3.20;;;30.00;67.00;;;;;;5011662;28;20465;-69
2022/04/13 10:25:28;;;;;;;6.10;3.30;;;30.20;67.00;;;;;;5011459;28;20465;-69
2022/04/13 10:27:57;;;;;;;5.37;3.10;;;30.50;67.00;;;;;;5011502;28;21020;-69
2022/04/13 10:30:28;;;;;;;5.97;3.20;;;30.80;65.30;;;;;;5011605;28;20960;-69
2022/04/13 10:33:00;;;;;;;3.13;2.80;;;31.10;66.80;;;;;;5011339;28;20525;-69
2022/04/13 10:35:27;;;;;;;6.73;3.17;;;31.20;64.50;;;;;;5011722;28;20522;-69
2022/04/13 10:37:55;;;;;;;5.03;2.67;;;31.20;64.20;;;;;;5010988;28;20486;-69
2022/04/13 10:40:24;;;;;;;4.50;3.00;;;31.20;63.60;;;;;;5011140;28;20509;-69
2022/04/13 10:42:53;;;;;;;5.47;2.63;;;31.20;63.50;;;;;;5010578;28;20891;-68
2022/04/13 10:45:20;;;;;;;5.60;2.50;;;31.50;63.30;;;;;;5028676;28;20466;-69
2022/04/13 10:47:56;;;;;;;7.13;3.27;;;31.70;61.30;;;;;;5030038;28;20490;-70
2022/04/13 10:50:33;;;;;;;6.53;2.80;;;31.80;61.80;;;;;;5028833;28;20557;-69
2022/04/13 10:53:03;;;;;;;4.10;2.70;;;31.90;61.20;;;;;;5028496;28;20485;-69
2022/04/13 10:55:33;;;;;;;3.57;2.37;;;32.30;60.00;;;;;;5030410;28;20459;-69
2022/04/13 10:58:08;;;;;;;4.60;2.50;;;32.60;61.30;;;;;;5029034;28;20572;-69
2022/04/13 11:00:36;;;;;;;3.07;2.40;;;32.70;59.70;;;;;;5033203;28;20469;-69
2022/04/13 11:03:05;;;;;;;3.47;2.33;;;32.70;57.40;;;;;;5030867;28;20881;-68
2022/04/13 11:05:32;;;;;;;3.97;2.50;;;33.00;58.40;;;;;;5029919;28;20467;-70
2022/04/13 11:08:10;;;;;;;4.13;3.07;;;32.70;58.90;;;;;;5028919;28;20513;-69
2022/04/13 11:10:39;;;;;;;4.17;2.93;;;32.90;60.60;;;;;;5030421;28;20469;-68
2022/04/13 11:13:07;;;;;;;4.37;2.47;;;32.80;58.80;;;;;;5032977;28;20458;-69
2022/04/13 11:15:42;;;;;;;4.00;2.47;;;33.00;61.30;;;;;;5029198;28;20480;-68
2022/04/13 11:18:11;;;;;;;5.27;3.10;;;33.30;59.20;;;;;;5029453;28;21096;-72
2022/04/13 11:20:38;;;;;;;3.80;3.07;;;33.50;59.80;;;;;;5030017;28;20517;-71
2022/04/13 11:23:12;;;;;;;4.57;2.73;;;33.80;57.70;;;;;;5030069;28;20478;-71
2022/04/13 11:25:47;;;;;;;5.00;2.50;;;33.20;57.40;;;;;;5034659;28;20474;-70
2022/04/13 11:28:26;;;;;;;5.10;2.90;;;33.20;58.90;;;;;;5033818;28;21063;-70
2022/04/13 11:31:07;;;;;;;3.77;2.70;;;33.50;58.90;;;;;;5029805;28;20954;-69
2022/04/13 11:33:56;;;;;;;5.37;2.43;;;33.70;57.30;;;;;;5029636;28;20470;-70
2022/04/13 11:36:24;;;;;;;3.37;2.30;;;33.80;57.20;;;;;;5023993;28;20483;-68
2022/04/13 11:38:53;;;;;;;3.50;2.60;;;33.60;57.90;;;;;;5029743;28;20490;-69
2022/04/13 11:41:20;;;;;;;2.67;2.40;;;33.30;57.90;;;;;;5029746;28;20837;-68
2022/04/13 11:43:49;;;;;;;4.00;2.40;;;33.60;57.30;;;;;;5029505;28;20848;-69
2022/04/13 11:46:36;;;;;;;4.27;2.57;;;33.60;60.00;;;;;;5029185;28;20561;-68
2022/04/13 11:49:03;;;;;;;6.20;3.00;;;33.80;58.80;;;;;;5028765;28;20529;-68
2022/04/13 11:51:30;;;;;;;5.80;2.90;;;33.60;57.90;;;;;;5029647;28;20468;-68
2022/04/13 11:54:06;;;;;;;3.30;2.70;;;33.40;58.70;;;;;;5030366;28;21053;-69
2022/04/13 11:56:34;;;;;;;6.30;2.90;;;33.50;58.20;;;;;;5030502;28;20479;-69
2022/04/13 11:59:02;;;;;;;3.63;2.83;;;33.50;56.80;;;;;;5028798;28;20466;-69
2022/04/13 12:01:30;;;;;;;4.60;2.83;;;33.30;57.80;;;;;;5030869;28;20463;-70
2022/04/13 12:03:58;;;;;;;3.57;2.30;;;33.20;59.00;;;;;;5033130;28;20467;-69
2022/04/13 12:06:26;;;;;;;5.23;2.60;;;33.40;57.40;;;;;;5029669;28;20827;-69
2022/04/13 12:08:55;;;;;;;4.60;2.60;;;33.40;57.00;;;;;;5029353;28;20864;-69
2022/04/13 12:11:23;;;;;;;13.30;3.30;;;33.60;58.20;;;;;;5028977;28;20464;-67
2022/04/13 12:13:52;;;;;;;3.87;2.30;;;33.50;57.30;;;;;;5029319;28;20462;-68
2022/04/13 12:16:25;;;;;;;3.30;2.53;;;33.00;58.60;;;;;;5029647;28;20571;-69
2022/04/13 12:18:54;;;;;;;3.77;2.70;;;32.80;58.50;;;;;;5030596;28;20453;-68
2022/04/13 12:21:24;;;;;;;5.97;3.20;;;32.40;58.50;;;;;;5032386;28;20462;-69
2022/04/13 12:23:51;;;;;;;6.37;2.93;;;32.60;58.10;;;;;;5032337;28;20458;-71
2022/04/13 12:26:29;;;;;;;8.20;2.33;;;32.90;57.60;;;;;;5032307;28;20486;-70
2022/04/13 12:28:56;;;;;;;3.43;2.77;;;33.20;57.70;;;;;;5011864;28;20771;-68
2022/04/13 12:31:27;;;;;;;3.43;2.60;;;32.70;57.90;;;;;;5012384;28;20946;-69
2022/04/13 12:33:58;;;;;;;5.10;2.80;;;32.90;59.20;;;;;;5012558;28;20468;-68
2022/04/13 12:36:25;;;;;;;4.20;2.70;;;33.00;57.50;;;;;;5011268;28;20480;-68
2022/04/13 12:38:54;;;;;;;14.37;2.93;;;33.00;58.30;;;;;;5011963;28;20841;-71
2022/04/13 12:41:22;;;;;;;4.63;2.70;;;33.20;58.60;;;;;;5012407;28;20953;-70
2022/04/13 12:43:52;;;;;;;4.53;2.97;;;33.00;58.60;;;;;;5012322;28;20465;-70
2022/04/13 12:46:20;;;;;;;3.80;2.30;;;33.10;57.60;;;;;;5011574;28;20501;-70
2022/04/13 12:48:50;;;;;;;5.50;3.10;;;32.70;57.10;;;;;;5011214;28;21016;-69
2022/04/13 12:51:18;;;;;;;7.53;2.43;;;33.00;56.40;;;;;;5012855;28;20461;-68
2022/04/13 12:53:51;;;;;;;3.97;2.80;;;33.30;57.30;;;;;;5012417;28;20862;-68
2022/04/13 12:56:22;;;;;;;3.73;2.47;;;33.40;57.20;;;;;;5018470;28;20481;-75
2022/04/13 12:58:48;;;;;;;4.47;2.47;;;33.40;57.70;;;;;;5019476;28;20464;-72
2022/04/13 13:01:26;;;;;;;3.23;2.30;;;33.50;56.90;;;;;;5015163;28;20465;-73
2022/04/13 13:03:55;;;;;;;3.30;3.00;;;33.40;56.00;;;;;;5032186;28;20471;-72
2022/04/13 13:06:29;;;;;;;6.10;2.67;;;32.90;58.00;;;;;;5037923;28;20482;-74
2022/04/13 13:08:58;;;;;;;4.73;2.00;;;33.10;57.10;;;;;;5041399;28;20531;-73
2022/04/13 13:11:28;;;;;;;4.53;2.50;;;33.20;57.30;;;;;;5034444;28;20514;-69
2022/04/13 13:14:08;;;;;;;3.70;2.50;;;33.10;56.20;;;;;;5031787;28;20468;-69
2022/04/13 13:16:36;;;;;;;3.77;2.53;;;32.80;56.50;;;;;;5031207;28;20495;-69
2022/04/13 13:19:16;;;;;;;3.23;2.30;;;32.90;56.90;;;;;;5030658;28;20491;-69
2022/04/13 13:22:08;;;;;;;4.47;2.30;;;33.10;57.50;;;;;;5031692;28;20872;-69
2022/04/13 13:24:35;;;;;;;4.43;2.30;;;33.20;56.50;;;;;;5031117;28;20526;-70
2022/04/13 13:27:03;;;;;;;3.60;2.27;;;33.60;55.90;;;;;;5030309;28;20490;-70
2022/04/13 13:29:30;;;;;;;4.30;2.60;;;33.40;56.30;;;;;;5030305;28;20464;-72